Forks, WA

9:20 AM PST on January 23, 2017 (GMT -0800)
MFKSWA | | Change Station

Elev 311 ft 47.97 °N, 124.40 °W | Updated 13 minutes ago

Partly Cloudy
Partly Cloudy
32.0 °F
Feels Like 28 °F
N
4.0
Wind Variable Wind from ESE

Today
High -- | Low -- °F
--% Chance of Precip.
Yesterday
High -- | Low -- °F
Precip. -- in
Pressure 29.78 in
Visibility 10.0 miles
Clouds Clear
Windchill 28 °F
Dew Point 30 °F
Humidity 93%
Rainfall 0.16 in
Snow Depth Not available.
7:55 AM 5:04 PM
Waning Crescent, 17% visible
METAR KUIL 231653Z AUTO 00000KT 10SM CLR 01/01 A2977 RMK AO2 SLP084 I1000 T00060006
Pressure 29.78 in
Visibility 10.0 miles
Clouds Clear
Windchill 28 °F
Dew Point 30 °F
Humidity 93%
Rainfall 0.16 in
Snow Depth Not available.
7:55 AM 5:04 PM
Waning Crescent, 17% visible
METAR KUIL 231653Z AUTO 00000KT 10SM CLR 01/01 A2977 RMK AO2 SLP084 I1000 T00060006

Get Your Daily Forecast Email!

Thanks for signing up!

Be on the lookout for a verification email in your inbox.

You'll start receiving the daily forecast at 8 AM.

×

10-Day Weather Forecast

Almanac

Astronomy

Jan. 23, 2017 Rise Set
Actual Time
Civil Twilight
Nautical Twilight
Astronomical Twilight
Moon
Length of Visible Light
Length of Day
Tomorrow will be .
, % of the Moon is Illuminated

Today's Extremes

State Highs State Lows

Community

WunderPhotos

Upload Photos

1,962,540 photos uploaded!

WunderBlog® & News

Nearby

Air Quality

  Air Quality AQ Index Pollutant
Not available.

Snow Depth

Station Depth Elevation

Earthquake Activity

City Distance Mag. Time & Date
Minimum magnitude displayed is 2.5.

Coastal Water Temperatures

Place Temperature

Stations

Nearby Weather Stations

Station Location Temp. Windchill Dew Point Humidity Wind Precip. Elev Updated Type
                   

Watches & Warnings

Small Craft for Hazardous Seas Advisory
Issued: 8:48 AM PST Jan. 23, 2017 – National Weather Service

... Small Craft Advisory for hazardous seas remains in effect until
4 am PST Tuesday...

* waves/seas... southwest swell 12 to 14 feet at 12 seconds tonight
subsiding to 10 to 12 feet at 11 seconds today and tonight.

Precautionary/preparedness actions...

A Small Craft Advisory for hazardous seas means that waves are
expected to be hazardous to small craft. Mariners should avoid
shoaling areas. Long period swell can sharpen into large breaking
waves in shoaling areas. It is not unusual for waves to break much
farther from shoaling areas than is normally experienced.
Remember... breaking waves can easily capsize even larger vessels.




Www.Weather.Gov